createdAt,value
2022-12-15T00:00:44.815Z,97140.78
2022-12-15T00:03:18.627Z,97152.06
2022-12-15T00:05:51.844Z,97149.44
2022-12-15T00:08:25.521Z,97150.38
2022-12-15T00:11:01.906Z,97156.50
2022-12-15T00:23:52.532Z,97156.69
2022-12-15T00:26:32.518Z,97155.06
2022-12-15T00:29:06.204Z,97147.25
2022-12-15T00:31:40.626Z,97150.78
2022-12-15T00:34:13.773Z,97152.47
2022-12-15T00:36:49.891Z,97149.84
2022-12-15T00:50:02.566Z,97157.81
2022-12-15T00:52:35.916Z,97171.66
2022-12-15T00:55:10.493Z,97170.84
2022-12-15T00:57:52.984Z,97169.13
2022-12-15T01:00:33.526Z,97171.72
2022-12-15T01:17:10.486Z,97187.56
2022-12-15T01:19:50.500Z,97190.22
2022-12-15T01:22:23.782Z,97192.88
2022-12-15T01:24:57.520Z,97185.97
2022-12-15T01:27:30.848Z,97191.22
2022-12-15T01:30:04.484Z,97185.22
2022-12-15T01:43:21.537Z,97189.75
2022-12-15T01:46:01.256Z,97204.53
2022-12-15T01:48:48.499Z,97202.00
2022-12-15T01:51:32.281Z,97203.78
2022-12-15T01:54:20.482Z,97194.19
2022-12-15T01:56:59.556Z,97205.50
2022-12-15T02:09:48.479Z,97222.13
2022-12-15T02:12:45.501Z,97230.78
2022-12-15T02:15:27.683Z,97228.22
2022-12-15T02:18:22.509Z,97236.06
2022-12-15T02:21:09.320Z,97232.56
2022-12-15T02:24:40.497Z,97240.44
2022-12-15T02:38:00.058Z,97270.00
2022-12-15T02:40:34.744Z,97277.81
2022-12-15T02:43:12.496Z,97274.31
2022-12-15T02:45:59.601Z,97278.63
2022-12-15T02:48:57.516Z,97277.75
2022-12-15T02:51:47.849Z,97282.94
2022-12-15T03:04:44.505Z,97296.81
2022-12-15T03:07:24.468Z,97301.97
2022-12-15T03:10:04.393Z,97295.03
2022-12-15T03:12:44.531Z,97305.41
2022-12-15T03:15:18.933Z,97301.09
2022-12-15T03:31:34.563Z,97320.16
2022-12-15T03:34:07.744Z,97330.56
2022-12-15T03:36:41.484Z,97336.59
2022-12-15T03:39:20.027Z,97334.00
2022-12-15T03:42:02.076Z,97339.22
2022-12-15T03:44:35.708Z,97326.19
2022-12-15T03:47:11.475Z,97334.00
2022-12-15T03:56:56.440Z,97340.13
2022-12-15T03:59:36.477Z,97342.69
2022-12-15T04:02:12.247Z,97347.03
2022-12-15T04:04:45.468Z,97346.19
2022-12-15T04:07:18.832Z,97350.53
2022-12-15T04:09:52.490Z,97360.06
2022-12-15T04:12:25.781Z,97375.69
2022-12-15T04:25:19.434Z,97384.47
2022-12-15T04:28:01.720Z,97390.56
2022-12-15T04:30:36.400Z,97387.91
2022-12-15T04:33:17.498Z,97387.03
2022-12-15T04:35:52.350Z,97397.44
2022-12-15T04:52:07.468Z,97410.63
2022-12-15T04:54:40.720Z,97420.19
2022-12-15T04:57:14.453Z,97419.34
2022-12-15T04:59:47.804Z,97426.31
2022-12-15T05:02:21.648Z,97422.94
2022-12-15T05:04:54.700Z,97430.69
2022-12-15T05:07:30.485Z,97435.97
2022-12-15T05:17:15.489Z,97435.13
2022-12-15T05:19:55.453Z,97433.41
2022-12-15T05:22:30.649Z,97440.41
2022-12-15T05:25:03.451Z,97442.13
2022-12-15T05:27:36.720Z,97460.41
2022-12-15T05:30:11.443Z,97456.13
2022-12-15T05:43:38.464Z,97488.25
2022-12-15T05:46:12.038Z,97476.09
2022-12-15T05:48:46.527Z,97491.72
2022-12-15T05:51:19.840Z,97489.13
2022-12-15T05:53:58.447Z,97492.59
2022-12-15T05:56:31.761Z,97497.81
2022-12-15T06:12:46.442Z,97516.94
2022-12-15T06:15:19.703Z,97520.44
2022-12-15T06:17:53.480Z,97523.03
2022-12-15T06:20:26.717Z,97530.84
2022-12-15T06:23:00.414Z,97529.97
2022-12-15T06:25:33.832Z,97534.41
2022-12-15T06:38:24.480Z,97550.28
2022-12-15T06:41:06.432Z,97550.28
2022-12-15T06:43:40.304Z,97548.59
2022-12-15T06:46:14.477Z,97550.38
2022-12-15T06:48:48.406Z,97545.22
2022-12-15T06:51:24.204Z,97559.94
2022-12-15T07:04:38.422Z,97573.94
2022-12-15T07:07:11.805Z,97572.22
2022-12-15T07:09:45.444Z,97574.84
2022-12-15T07:12:18.857Z,97577.44
2022-12-15T07:14:53.651Z,97577.47
2022-12-15T07:17:27.980Z,97590.53
2022-12-15T07:30:38.981Z,97604.59
2022-12-15T07:33:19.421Z,97612.41
2022-12-15T07:35:53.512Z,97609.00
2022-12-15T07:38:27.435Z,97608.13
2022-12-15T07:41:03.084Z,97609.06
2022-12-15T07:43:37.141Z,97616.03
2022-12-15T07:46:13.618Z,97609.94
2022-12-15T07:59:01.381Z,97650.84
2022-12-15T08:01:43.656Z,97651.72
2022-12-15T08:04:17.124Z,97664.78
2022-12-15T08:06:50.421Z,97662.19
2022-12-15T08:09:24.312Z,97662.19
2022-12-15T08:11:58.400Z,97667.38
2022-12-15T08:25:11.433Z,97671.75
2022-12-15T08:27:44.664Z,97676.09
2022-12-15T08:30:19.404Z,97670.88
2022-12-15T08:32:52.774Z,97666.53
2022-12-15T08:35:55.115Z,97672.59
2022-12-15T08:52:23.368Z,97689.88
2022-12-15T08:55:03.509Z,97695.06
2022-12-15T08:57:37.188Z,97695.00
2022-12-15T09:00:11.650Z,97701.94
2022-12-15T09:02:44.728Z,97708.00
2022-12-15T09:05:18.404Z,97703.66
2022-12-15T09:18:30.460Z,97714.88
2022-12-15T09:21:06.737Z,97709.66
2022-12-15T09:23:41.388Z,97702.66
2022-12-15T09:26:15.289Z,97706.09
2022-12-15T09:28:50.051Z,97709.53
2022-12-15T09:31:36.239Z,97700.81
2022-12-15T09:44:36.358Z,97702.44
2022-12-15T09:47:27.412Z,97711.97
2022-12-15T09:50:05.263Z,97704.06
2022-12-15T09:52:54.403Z,97708.41
2022-12-15T09:55:30.941Z,97711.84
2022-12-15T10:12:01.427Z,97715.16
2022-12-15T10:14:41.816Z,97720.28
2022-12-15T10:17:29.425Z,97718.50
2022-12-15T10:20:16.010Z,97720.22
2022-12-15T10:23:11.452Z,97731.44
2022-12-15T10:25:51.382Z,97732.38
2022-12-15T10:39:06.359Z,97747.81
2022-12-15T10:41:46.374Z,97753.00
2022-12-15T10:44:31.913Z,97751.22
2022-12-15T10:47:17.371Z,97750.25
2022-12-15T10:49:51.262Z,97757.19
2022-12-15T10:52:32.413Z,97760.63
2022-12-15T11:05:44.377Z,97774.88
2022-12-15T11:08:19.567Z,97779.22
2022-12-15T11:10:59.458Z,97778.28
2022-12-15T11:13:35.023Z,97770.50
2022-12-15T11:16:21.393Z,97776.53
2022-12-15T11:33:03.369Z,97781.34
2022-12-15T11:36:06.390Z,97784.66
2022-12-15T11:38:49.775Z,97770.59
2022-12-15T11:41:45.357Z,97772.06
2022-12-15T11:44:27.379Z,97780.56
2022-12-15T11:47:25.358Z,97779.53
2022-12-15T12:00:44.361Z,97763.09
2022-12-15T12:03:33.479Z,97757.59
2022-12-15T12:06:32.372Z,97754.81
2022-12-15T12:09:28.714Z,97759.03
2022-12-15T12:12:23.427Z,97763.31
2022-12-15T12:25:41.385Z,97745.63
2022-12-15T12:28:32.526Z,97746.59
2022-12-15T12:31:28.381Z,97751.03
2022-12-15T12:34:11.753Z,97752.06
2022-12-15T12:36:53.374Z,97750.41
2022-12-15T12:39:27.664Z,97759.19
2022-12-15T12:42:15.365Z,97750.53
2022-12-15T12:51:48.654Z,97749.78
2022-12-15T12:54:47.365Z,97752.41
2022-12-15T12:57:38.499Z,97751.53
2022-12-15T13:00:26.418Z,97746.28
2022-12-15T13:03:17.411Z,97748.03
2022-12-15T13:05:57.338Z,97744.63
2022-12-15T13:19:12.344Z,97751.53
2022-12-15T13:21:54.086Z,97732.31
2022-12-15T13:24:40.337Z,97732.28
2022-12-15T13:27:15.430Z,97735.69
2022-12-15T13:30:06.414Z,97742.59
2022-12-15T13:32:42.734Z,97743.47
2022-12-15T13:45:54.360Z,97734.59
2022-12-15T13:48:41.434Z,97726.03
2022-12-15T13:51:26.985Z,97731.16
2022-12-15T13:54:18.391Z,97744.97
2022-12-15T13:57:02.357Z,97757.03
2022-12-15T13:59:51.342Z,97757.78
2022-12-15T14:02:29.339Z,97768.09
2022-12-15T14:15:17.953Z,97761.53
2022-12-15T14:18:00.899Z,97764.25
2022-12-15T14:20:40.240Z,97765.28
2022-12-15T14:23:25.329Z,97767.19
2022-12-15T14:26:06.004Z,97770.91
2022-12-15T14:39:07.373Z,97785.44
2022-12-15T14:41:53.320Z,97785.50
2022-12-15T14:44:38.331Z,97783.88
2022-12-15T14:47:30.352Z,97784.81
2022-12-15T14:50:09.452Z,97784.84
2022-12-15T14:52:51.356Z,97779.69
2022-12-15T15:06:10.328Z,97797.25
2022-12-15T15:08:47.652Z,97793.81
2022-12-15T15:11:35.344Z,97792.94
2022-12-15T15:14:15.876Z,97790.38
2022-12-15T15:17:11.359Z,97795.63
2022-12-15T15:19:51.436Z,97786.13
2022-12-15T15:22:49.651Z,97786.19
2022-12-15T15:32:34.311Z,97774.97
2022-12-15T15:35:14.304Z,97785.41
2022-12-15T15:37:51.556Z,97779.38
2022-12-15T15:40:31.335Z,97779.38
2022-12-15T15:43:10.776Z,97780.28
2022-12-15T15:45:53.431Z,97779.44
2022-12-15T15:59:15.341Z,97789.97
2022-12-15T16:01:53.595Z,97788.25
2022-12-15T16:04:33.330Z,97781.31
2022-12-15T16:07:18.819Z,97779.59
2022-12-15T16:10:00.331Z,97772.59
2022-12-15T16:12:43.693Z,97771.75
2022-12-15T16:25:59.281Z,97785.69
2022-12-15T16:28:39.403Z,97789.19
2022-12-15T16:31:27.428Z,97803.16
2022-12-15T16:34:07.344Z,97799.72
2022-12-15T16:36:40.989Z,97807.53
2022-12-15T16:39:32.113Z,97807.63
2022-12-15T16:42:11.728Z,97809.38
2022-12-15T16:52:26.307Z,97832.03
2022-12-15T16:54:59.601Z,97828.59
2022-12-15T16:57:37.325Z,97821.69
2022-12-15T17:00:18.553Z,97813.03
2022-12-15T17:02:58.419Z,97809.56
2022-12-15T17:05:35.386Z,97811.28
2022-12-15T17:19:20.713Z,97820.94
2022-12-15T17:22:01.304Z,97816.59
2022-12-15T17:24:34.613Z,97819.22
2022-12-15T17:27:08.550Z,97819.22
2022-12-15T17:29:42.784Z,97834.00
2022-12-15T17:32:19.306Z,97836.63
2022-12-15T17:45:58.313Z,97834.09
2022-12-15T17:48:31.612Z,97824.50
2022-12-15T17:51:05.297Z,97825.34
2022-12-15T17:53:45.982Z,97818.44
2022-12-15T17:56:23.301Z,97814.94
2022-12-15T17:58:56.548Z,97810.63
2022-12-15T18:01:32.465Z,97803.66
2022-12-15T18:14:42.320Z,97811.56
2022-12-15T18:17:17.525Z,97805.47
2022-12-15T18:19:51.354Z,97808.06
2022-12-15T18:22:24.718Z,97806.34
2022-12-15T18:25:00.271Z,97809.03
2022-12-15T18:27:33.669Z,97809.03
2022-12-15T18:40:31.269Z,97805.44
2022-12-15T18:43:18.300Z,97805.41
2022-12-15T18:45:52.260Z,97803.72
2022-12-15T18:48:28.300Z,97797.66
2022-12-15T18:51:12.509Z,97797.66
2022-12-15T19:07:34.290Z,97796.81
2022-12-15T19:10:14.010Z,97793.31
2022-12-15T19:12:58.592Z,97806.34
2022-12-15T19:15:32.511Z,97802.03
2022-12-15T19:18:05.301Z,97797.72
2022-12-15T19:20:38.886Z,97796.81
2022-12-15T19:32:59.265Z,97820.28
2022-12-15T19:35:39.849Z,97824.63
2022-12-15T19:38:23.292Z,97808.16
2022-12-15T19:41:05.269Z,97808.16
2022-12-15T19:43:38.496Z,97806.41
2022-12-15T19:46:12.379Z,97805.56
2022-12-15T19:59:44.283Z,97811.66
2022-12-15T20:02:20.382Z,97806.44
2022-12-15T20:04:55.269Z,97814.22
2022-12-15T20:07:30.266Z,97790.78
2022-12-15T20:10:03.285Z,97798.56
2022-12-15T20:12:36.711Z,97796.81
2022-12-15T20:28:52.274Z,97789.78
2022-12-15T20:31:26.388Z,97784.56
2022-12-15T20:34:00.253Z,97788.06
2022-12-15T20:36:33.564Z,97781.97
2022-12-15T20:39:08.349Z,97774.94
2022-12-15T20:41:41.578Z,97774.91
2022-12-15T20:54:32.244Z,97776.75
2022-12-15T20:57:12.274Z,97774.09
2022-12-15T20:59:46.364Z,97761.06
2022-12-15T21:02:26.494Z,97755.81
2022-12-15T21:04:59.749Z,97759.31
2022-12-15T21:07:33.257Z,97755.81
2022-12-15T21:20:45.241Z,97740.25
2022-12-15T21:23:23.452Z,97741.09
2022-12-15T21:26:05.248Z,97735.03
2022-12-15T21:28:38.505Z,97738.53
2022-12-15T21:31:12.269Z,97745.47
2022-12-15T21:47:49.233Z,97738.53
2022-12-15T21:50:29.299Z,97731.50
2022-12-15T21:53:05.197Z,97730.63
2022-12-15T21:55:38.242Z,97721.09
2022-12-15T21:58:19.661Z,97724.53
2022-12-15T22:00:59.327Z,97722.75
2022-12-15T22:14:29.273Z,97719.31
2022-12-15T22:17:16.287Z,97715.81
2022-12-15T22:19:56.220Z,97715.81
2022-12-15T22:22:31.973Z,97716.66
2022-12-15T22:25:05.228Z,97713.25
2022-12-15T22:27:38.677Z,97717.59
2022-12-15T22:40:30.245Z,97714.03
2022-12-15T22:43:18.225Z,97707.94
2022-12-15T22:45:54.303Z,97714.03
2022-12-15T22:48:41.852Z,97707.09
2022-12-15T22:51:17.773Z,97713.22
2022-12-15T22:53:52.256Z,97720.13
2022-12-15T22:56:39.187Z,97714.88
2022-12-15T23:06:54.951Z,97733.13
2022-12-15T23:09:44.131Z,97734.91
2022-12-15T23:12:26.281Z,97744.44
2022-12-15T23:14:59.618Z,97749.66
2022-12-15T23:17:33.214Z,97747.97
2022-12-15T23:20:08.430Z,97761.03
2022-12-15T23:22:41.235Z,97749.69
2022-12-15T23:35:16.213Z,97731.47
2022-12-15T23:37:49.494Z,97738.38
2022-12-15T23:40:24.239Z,97733.19
2022-12-15T23:42:57.541Z,97717.53
2022-12-15T23:45:31.240Z,97717.53
2022-12-15T23:48:05.091Z,97713.13
